createdAt,value
2018-02-25T00:02:19.641Z,-9.95
2018-02-25T00:04:47.231Z,-10.00
2018-02-25T00:07:14.881Z,-10.08
2018-02-25T00:09:42.445Z,-10.15
2018-02-25T00:12:10.097Z,-10.24
2018-02-25T00:14:37.730Z,-10.14
2018-02-25T00:17:05.782Z,-10.18
2018-02-25T00:19:33.388Z,-10.28
2018-02-25T00:22:01.021Z,-10.32
2018-02-25T00:24:28.609Z,-10.45
2018-02-25T00:26:56.547Z,-10.58
2018-02-25T00:29:24.183Z,-10.66
2018-02-25T00:31:51.887Z,-10.72
2018-02-25T00:34:19.500Z,-10.68
2018-02-25T00:36:47.117Z,-10.50
2018-02-25T00:39:14.980Z,-10.45
2018-02-25T00:41:42.720Z,-10.40
2018-02-25T00:44:10.522Z,-10.36
2018-02-25T00:46:38.198Z,-10.31
2018-02-25T00:49:06.028Z,-10.33
2018-02-25T00:51:33.612Z,-10.36
2018-02-25T00:54:01.217Z,-10.37
2018-02-25T00:56:28.826Z,-10.39
2018-02-25T00:58:56.764Z,-10.49
2018-02-25T01:01:24.345Z,-10.65
2018-02-25T01:03:51.910Z,-10.81
2018-02-25T01:06:19.576Z,-10.92
2018-02-25T01:08:47.146Z,-10.99
2018-02-25T01:11:15.036Z,-11.10
2018-02-25T01:13:42.660Z,-11.14
2018-02-25T01:16:10.300Z,-11.20
2018-02-25T01:18:37.906Z,-11.26
2018-02-25T01:21:05.570Z,-11.31
2018-02-25T01:23:33.177Z,-11.33
2018-02-25T01:26:00.789Z,-11.41
2018-02-25T01:28:28.382Z,-11.47
2018-02-25T01:30:55.987Z,-11.54
2018-02-25T01:33:23.703Z,-11.58
2018-02-25T01:35:51.312Z,-11.60
2018-02-25T01:38:18.901Z,-11.61
2018-02-25T01:40:46.514Z,-11.64
2018-02-25T01:43:14.066Z,-11.67
2018-02-25T01:45:41.669Z,-11.68
2018-02-25T01:48:09.276Z,-11.73
2018-02-25T01:50:48.607Z,-11.78
2018-02-25T01:53:16.484Z,-11.80
2018-02-25T01:55:44.084Z,-11.88
2018-02-25T01:58:11.651Z,-11.95
2018-02-25T02:00:39.247Z,-12.01
2018-02-25T02:03:07.224Z,-12.08
2018-02-25T02:05:35.352Z,-12.10
2018-02-25T02:08:03.781Z,-12.07
2018-02-25T02:10:31.424Z,-12.09
2018-02-25T02:12:59.095Z,-12.13
2018-02-25T02:15:26.776Z,-12.13
2018-02-25T02:17:54.445Z,-12.08
2018-02-25T02:20:22.081Z,-12.02
2018-02-25T02:22:49.729Z,-11.97
2018-02-25T02:25:17.816Z,-11.98
2018-02-25T02:27:45.467Z,-12.00
2018-02-25T02:30:13.212Z,-12.07
2018-02-25T02:32:40.794Z,-12.10
2018-02-25T02:35:08.449Z,-12.18
2018-02-25T02:37:36.075Z,-12.24
2018-02-25T02:40:03.730Z,-12.23
2018-02-25T02:42:31.397Z,-12.23
2018-02-25T02:44:59.018Z,-12.26
2018-02-25T02:47:26.631Z,-12.30
2018-02-25T02:49:54.279Z,-12.32
2018-02-25T02:52:22.673Z,-12.30
2018-02-25T02:54:50.297Z,-12.29
2018-02-25T02:57:17.903Z,-12.31
2018-02-25T02:59:45.495Z,-12.26
2018-02-25T03:02:15.924Z,-12.26
2018-02-25T03:04:46.773Z,-12.25
2018-02-25T03:07:19.550Z,-12.25
2018-02-25T03:09:49.748Z,-12.26
2018-02-25T03:12:37.340Z,-12.33
2018-02-25T03:15:05.203Z,-12.32
2018-02-25T03:17:32.824Z,-12.36
2018-02-25T03:20:00.675Z,-12.40
2018-02-25T03:22:28.292Z,-12.44
2018-02-25T03:24:55.886Z,-12.49
2018-02-25T03:27:23.598Z,-12.51
2018-02-25T03:29:51.195Z,-12.58
2018-02-25T03:32:20.409Z,-12.63
2018-02-25T03:34:48.000Z,-12.67
2018-02-25T03:37:15.585Z,-12.73
2018-02-25T03:39:43.541Z,-12.74
2018-02-25T03:42:11.114Z,-12.73
2018-02-25T03:44:38.690Z,-12.69
2018-02-25T03:47:06.560Z,-12.63
2018-02-25T03:49:34.297Z,-12.60
2018-02-25T03:52:01.920Z,-12.53
2018-02-25T03:54:29.525Z,-12.51
2018-02-25T03:56:57.137Z,-12.49
2018-02-25T03:59:24.949Z,-12.43
2018-02-25T04:01:52.606Z,-12.38
2018-02-25T04:04:21.153Z,-12.38
2018-02-25T04:06:48.750Z,-12.38
2018-02-25T04:09:16.565Z,-12.34
2018-02-25T04:11:44.253Z,-12.25
2018-02-25T04:14:11.847Z,-12.15
2018-02-25T04:16:39.456Z,-12.12
2018-02-25T04:19:07.195Z,-12.13
2018-02-25T04:21:34.803Z,-12.14
2018-02-25T04:24:02.398Z,-12.20
2018-02-25T04:26:30.007Z,-12.25
2018-02-25T04:28:57.616Z,-12.34
2018-02-25T04:31:27.774Z,-12.43
2018-02-25T04:33:55.717Z,-12.52
2018-02-25T04:36:23.362Z,-12.61
2018-02-25T04:38:50.998Z,-12.68
2018-02-25T04:41:18.572Z,-12.78
2018-02-25T04:43:46.182Z,-12.86
2018-02-25T04:46:13.884Z,-12.93
2018-02-25T04:48:41.443Z,-12.97
2018-02-25T04:51:09.831Z,-12.99
2018-02-25T04:53:37.526Z,-12.99
2018-02-25T04:56:05.122Z,-12.99
2018-02-25T04:58:33.067Z,-12.95
2018-02-25T05:01:00.746Z,-12.88
2018-02-25T05:03:29.464Z,-12.91
2018-02-25T05:05:57.131Z,-12.85
2018-02-25T05:08:24.742Z,-12.88
2018-02-25T05:10:52.335Z,-12.91
2018-02-25T05:13:19.980Z,-12.91
2018-02-25T05:15:47.545Z,-12.89
2018-02-25T05:18:15.149Z,-12.79
2018-02-25T05:20:42.775Z,-12.79
2018-02-25T05:23:11.917Z,-12.78
2018-02-25T05:25:39.513Z,-12.89
2018-02-25T05:28:07.181Z,-12.78
2018-02-25T05:30:34.786Z,-12.77
2018-02-25T05:33:02.416Z,-12.74
2018-02-25T05:35:30.067Z,-12.74
2018-02-25T05:37:57.647Z,-12.74
2018-02-25T05:40:25.291Z,-12.76
2018-02-25T05:42:53.199Z,-12.78
2018-02-25T05:45:20.805Z,-12.82
2018-02-25T05:47:48.363Z,-12.86
2018-02-25T05:50:16.313Z,-12.84
2018-02-25T05:52:44.084Z,-12.80
2018-02-25T05:55:12.729Z,-12.76
2018-02-25T05:57:40.334Z,-12.65
2018-02-25T06:00:08.144Z,-12.63
2018-02-25T06:02:35.716Z,-12.55
2018-02-25T06:05:03.355Z,-12.56
2018-02-25T06:07:32.457Z,-12.54
2018-02-25T06:10:00.051Z,-12.55
2018-02-25T06:12:28.389Z,-12.56
2018-02-25T06:14:55.976Z,-12.56
2018-02-25T06:17:24.389Z,-12.38
2018-02-25T06:19:52.056Z,-12.39
2018-02-25T06:22:19.688Z,-12.43
2018-02-25T06:24:47.306Z,-12.50
2018-02-25T06:27:14.992Z,-12.55
2018-02-25T06:29:42.599Z,-12.59
2018-02-25T06:32:10.381Z,-12.59
2018-02-25T06:34:37.979Z,-12.60
2018-02-25T06:37:06.029Z,-12.64
2018-02-25T06:39:33.953Z,-12.63
2018-02-25T06:42:01.562Z,-12.65
2018-02-25T06:44:29.230Z,-12.68
2018-02-25T06:46:56.832Z,-12.61
2018-02-25T06:49:24.627Z,-12.53
2018-02-25T06:51:52.232Z,-12.42
2018-02-25T06:54:19.862Z,-12.31
2018-02-25T06:56:47.511Z,-11.98
2018-02-25T06:59:15.099Z,-11.69
2018-02-25T07:01:42.767Z,-11.41
2018-02-25T07:04:10.386Z,-11.39
2018-02-25T07:06:37.980Z,-11.34
2018-02-25T07:09:06.141Z,-11.29
2018-02-25T07:11:34.932Z,-11.26
2018-02-25T07:14:03.280Z,-11.19
2018-02-25T07:16:30.859Z,-11.08
2018-02-25T07:18:58.452Z,-10.73
2018-02-25T07:21:26.402Z,-10.63
2018-02-25T07:23:55.043Z,-10.75
2018-02-25T07:26:22.641Z,-10.36
2018-02-25T07:28:50.465Z,-10.28
2018-02-25T07:31:18.045Z,-9.87
2018-02-25T07:33:45.696Z,-9.44
2018-02-25T07:36:13.365Z,-9.60
2018-02-25T07:38:40.954Z,-9.59
2018-02-25T07:41:08.528Z,-9.51
2018-02-25T07:43:36.155Z,-9.48
2018-02-25T07:46:03.729Z,-9.19
2018-02-25T07:48:31.297Z,-8.81
2018-02-25T07:50:58.889Z,-8.70
2018-02-25T07:53:26.506Z,-8.57
2018-02-25T07:55:57.042Z,-8.34
2018-02-25T07:58:24.629Z,-8.34
2018-02-25T08:00:52.275Z,-8.20
2018-02-25T08:03:20.581Z,-8.49
2018-02-25T08:05:48.212Z,-8.51
2018-02-25T08:08:16.013Z,-8.16
2018-02-25T08:10:43.602Z,-8.24
2018-02-25T08:13:12.003Z,-8.24
2018-02-25T08:15:41.180Z,-8.04
2018-02-25T08:18:08.729Z,-8.03
2018-02-25T08:20:36.305Z,-8.08
2018-02-25T08:23:03.898Z,-7.83
2018-02-25T08:25:31.538Z,-7.41
2018-02-25T08:27:59.165Z,-7.15
2018-02-25T08:30:26.774Z,-7.09
2018-02-25T08:32:54.354Z,-7.16
2018-02-25T08:35:21.966Z,-7.12
2018-02-25T08:37:49.569Z,-7.36
2018-02-25T08:40:17.189Z,-7.44
2018-02-25T08:42:44.776Z,-7.77
2018-02-25T08:45:12.547Z,-7.83
2018-02-25T08:47:40.123Z,-7.80
2018-02-25T08:50:07.793Z,-7.73
2018-02-25T08:52:35.364Z,-7.66
2018-02-25T08:55:02.948Z,-7.83
2018-02-25T08:57:30.522Z,-7.89
2018-02-25T08:59:58.106Z,-7.97
2018-02-25T09:02:25.724Z,-8.10
2018-02-25T09:04:53.301Z,-8.30
2018-02-25T09:07:20.942Z,-8.24
2018-02-25T09:09:48.628Z,-8.38
2018-02-25T09:12:16.229Z,-8.25
2018-02-25T09:14:43.797Z,-7.93
2018-02-25T09:17:12.028Z,-8.16
2018-02-25T09:19:39.638Z,-8.09
2018-02-25T09:22:07.270Z,-7.80
2018-02-25T09:24:34.928Z,-7.53
2018-02-25T09:27:02.667Z,-7.78
2018-02-25T09:29:30.291Z,-8.28
2018-02-25T09:31:59.622Z,-8.58
2018-02-25T09:34:27.217Z,-8.79
2018-02-25T09:36:54.779Z,-8.57
2018-02-25T09:39:22.382Z,-8.34
2018-02-25T09:41:49.968Z,-8.10
2018-02-25T09:44:17.583Z,-7.98
2018-02-25T09:46:45.181Z,-7.95
2018-02-25T09:49:13.138Z,-7.68
2018-02-25T09:51:40.767Z,-7.54
2018-02-25T09:54:08.355Z,-7.45
2018-02-25T09:56:35.971Z,-7.23
2018-02-25T09:59:03.600Z,-6.99
2018-02-25T10:01:31.205Z,-7.03
2018-02-25T10:03:58.876Z,-6.60
2018-02-25T10:06:26.818Z,-6.62
2018-02-25T10:08:54.396Z,-6.54
2018-02-25T10:11:22.162Z,-6.80
2018-02-25T10:13:49.752Z,-6.59
2018-02-25T10:16:17.622Z,-6.15
2018-02-25T10:18:45.294Z,-6.58
2018-02-25T10:21:13.527Z,-6.30
2018-02-25T10:23:41.087Z,-6.52
2018-02-25T10:26:08.709Z,-6.43
2018-02-25T10:28:36.317Z,-6.62
2018-02-25T10:31:03.955Z,-6.85
2018-02-25T10:33:31.629Z,-7.10
2018-02-25T10:35:59.214Z,-7.35
2018-02-25T10:38:26.942Z,-7.14
2018-02-25T10:40:54.514Z,-7.06
2018-02-25T10:43:22.817Z,-7.18
2018-02-25T10:45:58.256Z,-7.74
2018-02-25T10:48:26.120Z,-7.58
2018-02-25T10:50:53.703Z,-7.54
2018-02-25T10:53:21.628Z,-7.63
2018-02-25T10:55:49.199Z,-7.65
2018-02-25T10:58:16.792Z,-7.39
2018-02-25T11:00:50.013Z,-7.51
2018-02-25T11:03:17.582Z,-7.33
2018-02-25T11:05:45.151Z,-7.24
2018-02-25T11:08:12.836Z,-7.28
2018-02-25T11:10:40.410Z,-7.15
2018-02-25T11:13:08.098Z,-7.27
2018-02-25T11:15:35.778Z,-7.18
2018-02-25T11:18:05.885Z,-6.98
2018-02-25T11:20:33.545Z,-6.91
2018-02-25T11:23:01.428Z,-6.50
2018-02-25T11:25:29.084Z,-6.34
2018-02-25T11:27:57.927Z,-6.18
2018-02-25T11:30:25.734Z,-5.85
2018-02-25T11:32:53.348Z,-5.97
2018-02-25T11:35:21.280Z,-5.84
2018-02-25T11:37:49.931Z,-5.78
2018-02-25T11:40:17.530Z,-5.72
2018-02-25T11:42:45.088Z,-5.43
2018-02-25T11:45:13.331Z,-5.20
2018-02-25T11:47:41.048Z,-5.50
2018-02-25T11:50:08.605Z,-5.47
2018-02-25T11:52:36.293Z,-5.46
2018-02-25T11:55:03.935Z,-5.30
2018-02-25T11:57:31.532Z,-5.30
2018-02-25T11:59:59.084Z,-5.48
2018-02-25T12:02:26.665Z,-5.32
2018-02-25T12:04:54.283Z,-5.30
2018-02-25T12:07:22.113Z,-4.89
2018-02-25T12:09:49.754Z,-4.65
2018-02-25T12:12:17.361Z,-4.31
2018-02-25T12:14:44.956Z,-3.15
2018-02-25T12:17:12.794Z,-2.82
2018-02-25T12:19:40.411Z,-2.01
2018-02-25T12:22:08.011Z,-1.28
2018-02-25T12:24:35.594Z,-0.92
2018-02-25T12:27:03.406Z,-0.35
2018-02-25T12:29:31.022Z,-0.71
2018-02-25T12:31:58.596Z,-0.97
2018-02-25T12:34:26.213Z,-1.15
2018-02-25T12:36:53.788Z,-1.25
2018-02-25T12:39:21.765Z,-1.40
2018-02-25T12:41:49.361Z,-2.52
2018-02-25T12:44:16.978Z,-3.09
2018-02-25T12:46:44.539Z,-3.07
2018-02-25T12:49:12.583Z,-2.70
2018-02-25T12:51:40.175Z,-1.50
2018-02-25T12:54:08.096Z,-0.95
2018-02-25T12:56:35.697Z,-0.92
2018-02-25T12:59:03.288Z,-0.85
2018-02-25T13:01:30.967Z,-1.30
2018-02-25T13:03:59.436Z,-1.36
2018-02-25T13:06:27.069Z,-1.01
2018-02-25T13:08:54.652Z,-0.83
2018-02-25T13:11:22.231Z,-1.64
2018-02-25T13:13:49.818Z,-1.86
2018-02-25T13:16:17.410Z,-1.10
2018-02-25T13:18:44.985Z,-1.12
2018-02-25T13:21:12.677Z,0.42
2018-02-25T13:23:40.266Z,0.17
2018-02-25T13:26:07.873Z,0.36
2018-02-25T13:28:35.452Z,1.18
2018-02-25T13:31:03.080Z,0.79
2018-02-25T13:33:30.747Z,0.43
2018-02-25T13:35:58.647Z,-0.03
2018-02-25T13:38:30.046Z,0.29
2018-02-25T13:40:57.579Z,0.32
2018-02-25T13:43:25.280Z,0.58
2018-02-25T13:46:02.372Z,0.09
2018-02-25T13:48:37.687Z,0.71
2018-02-25T13:51:05.394Z,0.22
2018-02-25T13:53:32.981Z,-0.13
2018-02-25T13:56:00.644Z,-0.59
2018-02-25T13:58:28.469Z,-0.53
2018-02-25T14:00:56.089Z,-0.25
2018-02-25T14:03:24.348Z,-1.09
2018-02-25T14:05:51.932Z,-0.84
2018-02-25T14:08:19.586Z,-0.16
2018-02-25T14:10:47.162Z,0.21
2018-02-25T14:13:15.270Z,0.31
2018-02-25T14:15:46.321Z,-0.60
2018-02-25T14:18:13.938Z,-0.80
2018-02-25T14:20:41.532Z,-0.60
2018-02-25T14:23:09.592Z,-0.39
2018-02-25T14:25:37.301Z,0.20
2018-02-25T14:28:04.884Z,-0.02
2018-02-25T14:30:32.457Z,0.33
2018-02-25T14:33:00.107Z,0.60
2018-02-25T14:35:27.710Z,1.13
2018-02-25T14:37:55.276Z,1.12
2018-02-25T14:40:22.860Z,0.45
2018-02-25T14:42:50.445Z,0.77
2018-02-25T14:45:18.042Z,0.46
2018-02-25T14:47:45.645Z,0.09
2018-02-25T14:50:13.241Z,-0.23
2018-02-25T14:52:40.846Z,-0.27
2018-02-25T14:55:08.528Z,-0.10
2018-02-25T14:57:36.181Z,-0.01
2018-02-25T15:00:04.050Z,-0.69
2018-02-25T15:02:31.631Z,-1.11
2018-02-25T15:04:59.252Z,-1.28
2018-02-25T15:07:26.817Z,-1.32
2018-02-25T15:09:54.404Z,-1.16
2018-02-25T15:12:21.980Z,-1.62
2018-02-25T15:14:50.053Z,-1.73
2018-02-25T15:17:20.600Z,-1.80
2018-02-25T15:19:51.219Z,-2.08
2018-02-25T15:22:18.791Z,-2.09
2018-02-25T15:24:46.444Z,-2.10
2018-02-25T15:27:14.178Z,-2.56
2018-02-25T15:29:41.816Z,-3.21
2018-02-25T15:32:09.453Z,-3.41
2018-02-25T15:34:40.916Z,-3.37
2018-02-25T15:37:08.750Z,-3.51
2018-02-25T15:39:37.111Z,-3.27
2018-02-25T15:42:06.135Z,-3.59
2018-02-25T15:44:34.060Z,-3.41
2018-02-25T15:47:01.736Z,-3.21
2018-02-25T15:49:29.415Z,-2.89
2018-02-25T15:51:57.025Z,-3.21
2018-02-25T15:54:24.610Z,-3.72
2018-02-25T15:56:52.187Z,-4.26
2018-02-25T15:59:19.827Z,-5.06
2018-02-25T16:01:47.435Z,-5.78
2018-02-25T16:04:15.710Z,-6.16
2018-02-25T16:06:43.294Z,-6.52
2018-02-25T16:09:11.739Z,-6.70
2018-02-25T16:11:39.302Z,-6.98
2018-02-25T16:14:06.973Z,-7.10
2018-02-25T16:16:34.536Z,-7.25
2018-02-25T16:19:02.121Z,-7.33
2018-02-25T16:26:33.297Z,-7.60
2018-02-25T16:29:01.011Z,-7.74
2018-02-25T16:31:29.090Z,-7.88
2018-02-25T16:33:56.842Z,-8.03
2018-02-25T16:36:25.202Z,-8.13
2018-02-25T16:38:52.995Z,-8.21
2018-02-25T16:41:20.580Z,-8.32
2018-02-25T16:43:48.252Z,-8.44
2018-02-25T16:46:15.952Z,-8.53
2018-02-25T16:48:43.541Z,-8.61
2018-02-25T16:51:12.029Z,-8.75
2018-02-25T16:53:39.715Z,-8.79
2018-02-25T16:56:07.319Z,-8.80
2018-02-25T16:58:34.915Z,-8.83
2018-02-25T17:01:02.770Z,-8.96
2018-02-25T17:03:30.385Z,-8.96
2018-02-25T17:05:57.973Z,-9.02
2018-02-25T17:08:26.387Z,-9.18
2018-02-25T17:10:54.263Z,-9.28
2018-02-25T17:13:22.815Z,-9.40
2018-02-25T17:15:50.369Z,-9.49
2018-02-25T17:18:17.930Z,-9.57
2018-02-25T17:20:45.548Z,-9.67
2018-02-25T17:23:13.241Z,-9.76
2018-02-25T17:25:40.907Z,-9.84
2018-02-25T17:28:08.567Z,-9.88
2018-02-25T17:30:36.203Z,-9.92
2018-02-25T17:33:04.035Z,-9.96
2018-02-25T17:35:33.401Z,-10.02
2018-02-25T17:38:01.278Z,-10.13
2018-02-25T17:40:29.505Z,-10.17
2018-02-25T17:42:57.434Z,-10.21
2018-02-25T17:45:25.901Z,-10.26
2018-02-25T17:47:53.491Z,-10.30
2018-02-25T17:50:21.170Z,-10.37
2018-02-25T17:52:49.239Z,-10.41
2018-02-25T17:55:24.376Z,-10.42
2018-02-25T17:57:45.289Z,-10.38
2018-02-25T18:00:12.905Z,-10.37
2018-02-25T18:02:40.485Z,-10.48
2018-02-25T18:05:08.307Z,-10.58
2018-02-25T18:07:35.961Z,-10.62
2018-02-25T18:10:03.541Z,-10.68
2018-02-25T18:12:31.163Z,-10.78
2018-02-25T18:14:59.098Z,-10.84
2018-02-25T18:17:27.919Z,-10.90
2018-02-25T18:19:55.718Z,-10.97
2018-02-25T18:22:23.325Z,-10.98
2018-02-25T18:24:54.544Z,-11.03
2018-02-25T18:27:22.161Z,-11.08
2018-02-25T18:29:49.741Z,-11.16
2018-02-25T18:32:17.370Z,-11.24
2018-02-25T18:34:45.020Z,-11.23
2018-02-25T18:37:13.672Z,-11.28
2018-02-25T18:39:41.264Z,-11.27
2018-02-25T18:42:10.205Z,-11.34
2018-02-25T18:44:37.795Z,-11.48
2018-02-25T18:47:05.603Z,-11.57
2018-02-25T18:49:33.200Z,-11.61
2018-02-25T18:52:01.267Z,-11.65
2018-02-25T18:54:29.243Z,-11.66
2018-02-25T18:56:56.823Z,-11.74
2018-02-25T18:59:24.643Z,-11.88
2018-02-25T19:01:58.444Z,-11.93
2018-02-25T19:04:26.325Z,-11.95
2018-02-25T19:06:53.921Z,-11.94
2018-02-25T19:09:29.836Z,-11.98
2018-02-25T19:12:04.211Z,-12.05
2018-02-25T19:14:44.375Z,-12.13
2018-02-25T19:17:12.264Z,-12.21
2018-02-25T19:19:39.958Z,-12.27
2018-02-25T19:22:07.576Z,-12.32
2018-02-25T19:24:38.872Z,-12.37
2018-02-25T19:27:06.694Z,-12.66
2018-02-25T19:29:34.955Z,-12.47
2018-02-25T19:32:02.583Z,-12.54
2018-02-25T19:34:31.904Z,-12.61
2018-02-25T19:37:05.063Z,-12.64
2018-02-25T19:39:39.027Z,-12.67
2018-02-25T19:42:15.072Z,-12.74
2018-02-25T19:44:42.918Z,-12.78
2018-02-25T19:47:10.643Z,-12.81
2018-02-25T19:49:38.397Z,-12.85
2018-02-25T19:52:06.026Z,-12.88
2018-02-25T19:54:33.622Z,-12.95
2018-02-25T19:57:01.230Z,-12.99
2018-02-25T19:59:28.865Z,-13.05
2018-02-25T20:01:56.476Z,-13.06
2018-02-25T20:04:25.602Z,-13.09
2018-02-25T20:06:53.220Z,-13.14
2018-02-25T20:09:20.934Z,-13.15
2018-02-25T20:11:48.666Z,-13.16
2018-02-25T20:14:16.369Z,-13.23
2018-02-25T20:16:43.951Z,-13.23
2018-02-25T20:19:12.410Z,-13.27
2018-02-25T20:21:39.989Z,-13.31
2018-02-25T20:24:07.586Z,-13.36
2018-02-25T20:26:35.211Z,-13.38
2018-02-25T20:29:02.875Z,-13.43
2018-02-25T20:31:32.081Z,-13.43
2018-02-25T20:33:59.677Z,-13.45
2018-02-25T20:36:27.272Z,-13.50
2018-02-25T20:38:54.849Z,-13.53
2018-02-25T20:41:23.598Z,-13.59
2018-02-25T20:43:51.264Z,-13.60
2018-02-25T20:46:18.857Z,-13.58
2018-02-25T20:48:46.558Z,-13.58
2018-02-25T20:51:14.879Z,-13.62
2018-02-25T20:53:42.454Z,-13.67
2018-02-25T20:56:10.052Z,-13.64
2018-02-25T20:58:37.628Z,-13.66
2018-02-25T21:01:05.228Z,-13.69
2018-02-25T21:03:32.839Z,-13.66
2018-02-25T21:06:00.438Z,-13.60
2018-02-25T21:08:28.034Z,-13.54
2018-02-25T21:10:55.715Z,-13.47
2018-02-25T21:13:23.708Z,-13.48
2018-02-25T21:15:51.417Z,-13.47
2018-02-25T21:18:19.594Z,-13.50
2018-02-25T21:20:47.251Z,-13.49
2018-02-25T21:23:14.883Z,-13.50
2018-02-25T21:25:43.084Z,-13.54
2018-02-25T21:28:10.753Z,-13.57
2018-02-25T21:30:38.379Z,-13.62
2018-02-25T21:33:06.501Z,-13.69
2018-02-25T21:35:34.094Z,-13.77
2018-02-25T21:38:01.731Z,-13.77
2018-02-25T21:40:29.402Z,-13.78
2018-02-25T21:42:57.000Z,-13.75
2018-02-25T21:45:25.917Z,-13.76
2018-02-25T21:47:53.770Z,-13.79
2018-02-25T21:50:21.653Z,-13.75
2018-02-25T21:52:49.231Z,-13.78
2018-02-25T21:55:17.441Z,-13.82
2018-02-25T21:57:50.545Z,-13.81
2018-02-25T22:00:18.194Z,-13.87
2018-02-25T22:02:51.510Z,-13.85
2018-02-25T22:05:19.443Z,-13.87
2018-02-25T22:07:47.134Z,-13.91
2018-02-25T22:10:14.753Z,-13.95
2018-02-25T22:12:42.584Z,-14.02
2018-02-25T22:15:11.052Z,-14.07
2018-02-25T22:17:38.840Z,-14.09
2018-02-25T22:20:06.469Z,-14.08
2018-02-25T22:22:34.154Z,-14.11
2018-02-25T22:25:01.794Z,-14.18
2018-02-25T22:27:29.497Z,-14.24
2018-02-25T22:29:57.092Z,-14.27
2018-02-25T22:32:24.970Z,-14.30
2018-02-25T22:34:52.573Z,-14.36
2018-02-25T22:37:20.215Z,-14.33
2018-02-25T22:39:47.874Z,-14.34
2018-02-25T22:42:15.470Z,-14.34
2018-02-25T22:44:43.119Z,-14.34
2018-02-25T22:47:11.518Z,-14.32
2018-02-25T22:49:40.060Z,-14.34
2018-02-25T22:52:07.734Z,-14.43
2018-02-25T22:54:35.686Z,-14.45
2018-02-25T22:57:03.282Z,-14.49
2018-02-25T22:59:30.878Z,-14.48
2018-02-25T23:01:58.960Z,-14.45
2018-02-25T23:04:26.581Z,-14.45
2018-02-25T23:06:54.156Z,-14.45
2018-02-25T23:09:21.755Z,-14.44
2018-02-25T23:11:51.822Z,-14.42
2018-02-25T23:14:19.556Z,-14.40
2018-02-25T23:16:47.146Z,-14.05
2018-02-25T23:19:15.403Z,-14.05
2018-02-25T23:21:43.001Z,-14.03
2018-02-25T23:24:10.581Z,-14.11
2018-02-25T23:26:40.145Z,-14.08
2018-02-25T23:29:08.050Z,-14.12
2018-02-25T23:31:37.501Z,-14.08
2018-02-25T23:34:05.163Z,-14.08
2018-02-25T23:36:34.105Z,-14.16
2018-02-25T23:39:01.827Z,-14.19
2018-02-25T23:41:29.416Z,-14.19
2018-02-25T23:43:58.262Z,-14.24
2018-02-25T23:46:27.613Z,-14.20
2018-02-25T23:48:55.255Z,-14.17
2018-02-25T23:51:22.809Z,-14.17
2018-02-25T23:53:50.406Z,-14.22
2018-02-25T23:56:17.986Z,-14.21
2018-02-25T23:58:45.561Z,-14.16
